Time;durP1;ratioP1;P1;durP2;ratioP2;P2;SDS_P1;SDS_P2;PMS_P1;PMS_P2;Temp;Humidity;BMP_temperature;BMP_pressure;BME280_temperature;BME280_humidity;BME280_pressure;Samples;Min_cycle;Max_cycle;Signal;HPM_P1;HPM_P2
2022/10/03 00:02:23;;;;;;;1.95;1.70;;;;;;;4.13;55.21;97973.47;6104475;29;20406;-69
2022/10/03 00:05:55;;;;;;;2.35;2.15;;;;;;;4.00;55.53;97965.91;6104144;29;20040;-67
2022/10/03 00:08:59;;;;;;;2.65;2.10;;;;;;;4.03;55.63;97971.06;6104109;29;20051;-68
2022/10/03 00:12:19;;;;;;;3.17;2.20;;;;;;;4.08;55.29;97972.69;6104069;29;20040;-68
2022/10/03 00:15:33;;;;;;;2.58;2.05;;;;;;;3.87;56.12;97972.25;6103812;29;20056;-69
2022/10/03 00:18:52;;;;;;;;;;;;;;;3.84;56.28;97969.72;6104296;29;20044;-68
2022/10/03 00:22:17;;;;;;;2.13;1.55;;;;;;;3.78;56.53;97970.72;6103605;29;20001;-68
2022/10/03 00:25:46;;;;;;;2.65;1.80;;;;;;;3.59;57.07;97964.16;6103340;29;20130;-69
2022/10/03 00:29:22;;;;;;;2.53;1.92;;;;;;;3.62;57.33;97968.44;6098511;29;20134;-69
2022/10/03 00:32:30;;;;;;;2.03;1.80;;;;;;;3.75;57.27;97965.56;6103621;29;20515;-69
2022/10/03 00:35:43;;;;;;;2.50;2.30;;;;;;;3.67;57.76;97971.81;6103454;29;20044;-68
2022/10/03 00:38:53;;;;;;;2.55;1.95;;;;;;;3.68;57.69;97973.53;6103005;29;20055;-69
2022/10/03 00:42:16;;;;;;;2.67;1.92;;;;;;;3.79;57.62;97968.97;6103009;29;20048;-69
2022/10/03 00:45:32;;;;;;;2.13;1.92;;;;;;;3.73;57.90;97964.72;6102132;29;20044;-70
2022/10/03 00:49:22;;;;;;;1.90;1.80;;;;;;;3.80;57.84;97968.09;6102784;29;20059;-69
2022/10/03 00:52:44;;;;;;;2.47;2.13;;;;;;;3.62;58.28;97965.84;6099649;29;20056;-68
2022/10/03 00:55:52;;;;;;;1.90;1.70;;;;;;;3.66;58.32;97972.72;6102955;29;20130;-68
2022/10/03 00:59:01;;;;;;;2.35;1.98;;;;;;;3.75;58.33;97964.72;6102702;29;20052;-68
2022/10/03 01:02:27;;;;;;;5.03;2.95;;;;;;;3.83;57.89;97957.59;6102756;29;20187;-69
2022/10/03 01:05:49;;;;;;;4.55;3.08;;;;;;;3.88;58.00;97965.31;6102732;29;20044;-69
2022/10/03 01:09:21;;;;;;;3.63;2.22;;;;;;;3.94;57.93;97958.25;6102527;29;20040;-69
2022/10/03 01:12:40;;;;;;;2.08;1.90;;;;;;;4.05;57.61;97958.88;6102844;29;20089;-68
2022/10/03 01:16:05;;;;;;;2.15;1.90;;;;;;;4.18;57.35;97959.44;6102478;29;20582;-69
2022/10/03 01:19:33;;;;;;;2.10;1.60;;;;;;;4.21;56.89;97958.53;6102443;29;20044;-68
2022/10/03 01:23:02;;;;;;;3.42;2.03;;;;;;;4.18;57.08;97969.88;6101157;29;20052;-69
2022/10/03 01:26:53;;;;;;;1.95;1.75;;;;;;;4.21;56.85;97968.94;6102421;29;20135;-69
2022/10/03 01:33:34;;;;;;;1.95;1.80;;;;;;;4.45;56.31;97972.78;6101841;29;20134;-69
2022/10/03 01:36:51;;;;;;;3.50;2.30;;;;;;;4.37;56.76;97967.72;6100751;29;20230;-69
2022/10/03 01:39:55;;;;;;;2.20;1.75;;;;;;;4.37;56.71;97965.13;6102080;29;20052;-69
2022/10/03 01:43:02;;;;;;;4.20;1.75;;;;;;;4.34;56.93;97970.41;6102207;29;20535;-69
2022/10/03 01:46:11;;;;;;;3.10;2.13;;;;;;;4.38;56.87;97973.78;6101925;29;20458;-70
2022/10/03 01:49:38;;;;;;;2.30;2.10;;;;;;;4.34;57.37;97986.03;6102240;29;20528;-69
2022/10/03 01:53:12;;;;;;;4.10;2.50;;;;;;;4.29;57.58;97985.28;6102043;29;20044;-70
2022/10/03 01:56:32;;;;;;;2.83;2.10;;;;;;;4.24;58.08;97984.50;6099960;29;20574;-69
2022/10/03 02:00:01;;;;;;;2.95;2.25;;;;;;;4.21;58.34;97979.38;6101573;29;20040;-70
2022/10/03 02:03:16;;;;;;;4.70;2.20;;;;;;;4.10;58.56;97978.75;6101657;29;20051;-70
2022/10/03 02:06:39;;;;;;;3.10;2.17;;;;;;;4.14;58.83;97972.59;6101597;29;20048;-70
2022/10/03 02:10:01;;;;;;;3.33;2.83;;;;;;;4.05;58.82;97974.50;6101469;29;20051;-70
2022/10/03 02:13:16;;;;;;;3.03;2.30;;;;;;;4.02;59.13;97974.56;6101483;29;20080;-69
2022/10/03 02:16:53;;;;;;;2.63;2.30;;;;;;;4.04;59.44;97971.91;6100314;29;20060;-69
2022/10/03 02:20:26;;;;;;;3.53;2.25;;;;;;;4.00;59.30;97976.34;6101643;29;20052;-68
2022/10/03 02:23:33;;;;;;;2.50;2.17;;;;;;;4.04;59.61;97983.19;6101141;29;20461;-68
2022/10/03 02:27:01;;;;;;;2.42;2.08;;;;;;;4.18;59.19;97990.72;6101164;29;20040;-69
2022/10/03 02:30:31;;;;;;;2.10;1.77;;;;;;;4.30;58.89;97979.16;6101380;29;20063;-69
2022/10/03 02:34:08;;;;;;;4.18;2.58;;;;;;;4.39;58.57;97981.59;6099313;29;20052;-68
2022/10/03 02:37:48;;;;;;;2.50;2.30;;;;;;;4.38;58.76;97979.00;6079063;29;20519;-70
2022/10/03 02:41:12;;;;;;;2.72;2.00;;;;;;;4.34;59.03;97991.25;6089256;29;20195;-70
2022/10/03 02:44:49;;;;;;;3.88;2.33;;;;;;;4.51;58.73;97983.06;6101184;29;20131;-69
2022/10/03 02:48:13;;;;;;;2.40;2.17;;;;;;;4.55;58.57;97983.81;6100752;29;20533;-69
2022/10/03 02:51:39;;;;;;;1.85;1.42;;;;;;;4.67;58.50;97988.75;6104486;29;20048;-69
2022/10/03 02:54:52;;;;;;;3.10;2.42;;;;;;;4.73;58.21;97984.25;6105549;29;20207;-69
2022/10/03 02:58:00;;;;;;;2.47;1.52;;;;;;;4.78;58.13;97984.13;6105199;29;20062;-69
2022/10/03 03:01:31;;;;;;;2.45;2.00;;;;;;;4.85;58.22;97996.16;6105462;29;20135;-69
2022/10/03 03:05:06;;;;;;;9.32;5.90;;;;;;;5.10;57.62;97998.16;6103156;29;20062;-69
2022/10/03 03:08:23;;;;;;;4.85;3.05;;;;;;;5.23;57.44;97999.56;6104543;29;20058;-69
2022/10/03 03:12:09;;;;;;;4.32;2.83;;;;;;;5.39;57.03;98000.88;6105169;29;20516;-69
2022/10/03 03:15:45;;;;;;;2.13;1.77;;;;;;;5.49;56.09;97995.41;6103926;29;20075;-69
2022/10/03 03:19:16;;;;;;;2.20;1.83;;;;;;;5.57;55.38;97998.66;6105278;29;20143;-69
2022/10/03 03:22:24;;;;;;;1.92;1.58;;;;;;;5.54;55.56;97998.75;6099040;29;20056;-71
2022/10/03 03:25:28;;;;;;;2.10;1.90;;;;;;;5.62;54.96;98009.84;6104686;29;20081;-68
2022/10/03 03:28:51;;;;;;;2.50;1.73;;;;;;;5.82;54.00;98006.69;6104572;29;20131;-69
2022/10/03 03:32:00;;;;;;;2.20;2.00;;;;;;;5.88;53.31;98008.28;6104656;29;20075;-69
2022/10/03 03:35:14;;;;;;;2.25;1.50;;;;;;;5.81;53.53;98013.69;6104623;29;20056;-69
2022/10/03 03:38:47;;;;;;;3.42;1.67;;;;;;;5.98;52.50;98021.09;6104697;29;20048;-69
2022/10/03 03:42:00;;;;;;;2.05;1.85;;;;;;;5.82;52.76;98010.16;6104405;29;20154;-69
2022/10/03 03:45:10;;;;;;;3.17;2.22;;;;;;;5.85;52.43;98017.91;6104812;29;20052;-69
2022/10/03 03:48:38;;;;;;;2.33;2.10;;;;;;;5.73;52.77;98014.78;6104500;29;20060;-70
2022/10/03 03:52:24;;;;;;;2.55;2.05;;;;;;;5.63;53.50;98020.28;6104366;29;20056;-69
2022/10/03 03:55:47;;;;;;;3.45;2.03;;;;;;;5.63;53.33;98019.38;6104550;29;20047;-69
2022/10/03 03:58:54;;;;;;;2.08;1.50;;;;;;;5.71;52.81;98017.44;6104268;29;20543;-69
2022/10/03 04:02:06;;;;;;;1.90;1.70;;;;;;;5.61;53.10;98027.28;6103049;29;20498;-68
2022/10/03 04:05:40;;;;;;;2.08;1.67;;;;;;;5.84;52.67;98039.72;6104257;29;20056;-69
2022/10/03 04:09:00;;;;;;;2.10;1.90;;;;;;;5.74;52.98;98033.03;6104049;29;20044;-69
2022/10/03 04:12:13;;;;;;;2.33;1.70;;;;;;;5.81;52.76;98028.50;6103700;29;20217;-69
2022/10/03 04:15:33;;;;;;;2.42;2.00;;;;;;;5.79;53.23;98036.38;6103721;29;20060;-69
2022/10/03 04:19:03;;;;;;;2.38;1.80;;;;;;;5.98;52.88;98046.38;6103693;29;20044;-69
2022/10/03 04:22:37;;;;;;;2.10;1.80;;;;;;;5.98;52.46;98048.97;6103611;29;20135;-71
2022/10/03 04:26:16;;;;;;;1.95;1.80;;;;;;;6.04;52.50;98047.03;6103298;29;20203;-70
2022/10/03 04:30:01;;;;;;;2.28;1.92;;;;;;;6.14;51.99;98050.22;6103697;29;20044;-69
2022/10/03 04:33:13;;;;;;;2.33;2.03;;;;;;;6.21;51.55;98046.56;6103604;29;20135;-70
2022/10/03 04:36:20;;;;;;;2.15;1.95;;;;;;;6.25;52.02;98052.53;6103463;29;20044;-69
2022/10/03 04:39:50;;;;;;;3.10;1.80;;;;;;;6.40;50.96;98048.66;6103422;29;20076;-69
2022/10/03 04:42:58;;;;;;;1.80;1.70;;;;;;;6.41;51.66;98048.59;6103722;29;20056;-68
2022/10/03 04:46:13;;;;;;;3.47;2.03;;;;;;;6.66;50.57;98056.56;6102676;29;20083;-69
2022/10/03 04:49:37;;;;;;;2.83;1.70;;;;;;;6.77;50.12;98058.03;6103028;29;20047;-69
2022/10/03 04:52:55;;;;;;;1.67;1.58;;;;;;;6.75;49.10;98031.88;6102735;29;20428;-69
2022/10/03 04:56:05;;;;;;;2.97;1.80;;;;;;;6.93;49.14;98060.06;6102811;29;20542;-69
2022/10/03 04:59:21;;;;;;;3.45;1.42;;;;;;;7.07;48.75;98062.25;6102672;29;20052;-69
2022/10/03 05:02:42;;;;;;;1.58;1.33;;;;;;;7.32;48.26;98061.47;6102587;29;20426;-69
2022/10/03 05:05:59;;;;;;;1.55;1.35;;;;;;;7.37;48.12;98064.81;6100980;29;20062;-69
2022/10/03 05:09:23;;;;;;;2.25;1.40;;;;;;;7.49;47.79;98068.78;6101098;29;20044;-68
2022/10/03 05:12:37;;;;;;;1.73;1.42;;;;;;;7.64;47.40;98074.38;6101723;29;20048;-69
2022/10/03 05:16:13;;;;;;;1.57;1.23;;;;;;;7.78;46.47;98067.78;6102082;29;20506;-69
2022/10/03 05:19:36;;;;;;;1.85;1.25;;;;;;;8.00;45.64;98062.66;6097631;29;20055;-69
2022/10/03 05:23:00;;;;;;;4.22;1.52;;;;;;;8.15;44.61;98064.72;6101941;29;20047;-69
2022/10/03 05:26:02;;;;;;;2.72;1.58;;;;;;;8.35;44.33;98071.00;6101981;29;20040;-69
2022/10/03 05:29:19;;;;;;;1.42;1.08;;;;;;;11.81;38.32;98078.78;6101711;29;20422;-69
2022/10/03 05:32:32;;;;;;;2.00;1.20;;;;;;;17.03;30.33;98077.88;6101697;29;20064;-69
2022/10/03 05:35:58;;;;;;;2.35;1.30;;;;;;;20.06;25.73;98079.19;6102042;29;20048;-69
2022/10/03 05:39:26;;;;;;;4.85;2.05;;;;;;;22.83;22.71;98088.25;6101973;29;20048;-69
2022/10/03 05:42:34;;;;;;;1.95;1.75;;;;;;;24.09;20.46;98092.06;6101837;29;20502;-70
2022/10/03 05:46:02;;;;;;;1.92;1.45;;;;;;;26.42;19.18;98094.38;6100803;29;20513;-69
2022/10/03 05:49:37;;;;;;;1.63;0.90;;;;;;;28.02;17.17;98092.44;6102034;29;20056;-69
2022/10/03 05:52:58;;;;;;;1.40;1.20;;;;;;;29.25;15.98;98094.03;6101822;29;20052;-68
2022/10/03 05:56:22;;;;;;;1.48;0.85;;;;;;;30.98;14.71;98095.75;6101635;29;20157;-68
2022/10/03 05:59:27;;;;;;;0.50;0.50;;;;;;;31.83;13.94;98090.94;6101466;29;20519;-68
2022/10/03 06:02:58;;;;;;;2.47;0.80;;;;;;;32.70;13.07;98086.41;6101396;29;20561;-69
2022/10/03 06:06:32;;;;;;;0.68;0.50;;;;;;;32.99;12.89;98093.31;6101532;29;20052;-69
2022/10/03 06:10:03;;;;;;;1.20;0.90;;;;;;;33.05;12.04;98093.31;6086222;29;20056;-69
2022/10/03 06:13:15;;;;;;;0.75;0.68;;;;;;;33.06;11.52;98088.69;6101599;29;20048;-69
2022/10/03 06:16:40;;;;;;;0.85;0.52;;;;;;;34.40;11.49;98096.03;6101564;29;20056;-68
2022/10/03 06:20:15;;;;;;;1.13;0.70;;;;;;;34.01;11.33;98091.66;6101416;29;20040;-68
2022/10/03 06:23:47;;;;;;;1.55;0.75;;;;;;;34.69;10.51;98093.72;6101431;29;20052;-68
2022/10/03 06:27:18;;;;;;;0.80;0.50;;;;;;;34.17;10.81;98090.34;6106145;29;20115;-68
2022/10/03 06:30:36;;;;;;;0.70;0.43;;;;;;;34.27;9.94;98090.66;6104468;29;20040;-68
2022/10/03 06:34:02;;;;;;;0.82;0.57;;;;;;;34.39;10.44;98099.81;6105791;29;20040;-68
2022/10/03 06:37:07;;;;;;;1.27;0.65;;;;;;;34.17;9.93;98087.63;6104738;29;20048;-69
2022/10/03 06:40:47;;;;;;;1.27;0.70;;;;;;;34.54;10.24;98085.84;6105860;29;20040;-69
2022/10/03 06:44:20;;;;;;;0.70;0.50;;;;;;;34.77;9.81;98090.69;6105929;29;20064;-69
2022/10/03 06:47:25;;;;;;;0.80;0.55;;;;;;;34.03;9.73;98086.84;6105894;29;20051;-69
2022/10/03 06:50:38;;;;;;;0.73;0.57;;;;;;;34.18;9.85;98092.84;6105720;29;20044;-69
2022/10/03 06:53:53;;;;;;;;;;;;;;;35.29;9.23;98095.84;6106036;29;20128;-69
2022/10/03 06:57:06;;;;;;;0.88;0.70;;;;;;;34.04;10.17;98084.94;6104331;29;20062;-69
2022/10/03 07:00:21;;;;;;;1.60;0.60;;;;;;;33.64;10.06;98085.16;6105170;29;20074;-68
2022/10/03 07:03:37;;;;;;;0.85;0.50;;;;;;;33.14;9.92;98087.63;6105177;29;20052;-69
2022/10/03 07:07:00;;;;;;;1.42;0.60;;;;;;;32.87;10.14;98069.44;6105334;29;20055;-69
2022/10/03 07:10:37;;;;;;;0.82;0.63;;;;;;;33.84;10.05;98077.69;6105279;29;20048;-69
2022/10/03 07:14:01;;;;;;;1.00;0.70;;;;;;;33.97;9.55;98074.03;6083830;29;20075;-69
2022/10/03 07:17:21;;;;;;;1.15;0.70;;;;;;;33.79;9.34;98072.06;6104631;29;20088;-69
2022/10/03 07:20:57;;;;;;;0.80;0.57;;;;;;;33.36;9.71;98064.47;6104871;29;20059;-69
2022/10/03 07:24:40;;;;;;;2.10;0.63;;;;;;;33.54;9.42;98069.25;6105390;29;20056;-69
2022/10/03 07:28:03;;;;;;;1.13;0.50;;;;;;;34.32;8.98;98070.91;6104702;29;20044;-69
2022/10/03 07:31:38;;;;;;;0.82;0.63;;;;;;;33.28;9.36;98064.72;6104687;29;20414;-69
2022/10/03 07:35:00;;;;;;;1.77;0.60;;;;;;;33.00;9.16;98073.19;6104805;29;20407;-69
2022/10/03 07:42:13;;;;;;;1.60;0.60;;;;;;;33.03;9.44;98062.69;6104040;29;20141;-70
2022/10/03 07:45:46;;;;;;;0.80;0.50;;;;;;;33.34;9.65;98063.84;6104503;29;20040;-68
2022/10/03 07:49:13;;;;;;;0.85;0.50;;;;;;;33.61;9.75;98058.31;6087851;29;20060;-69
2022/10/03 07:52:39;;;;;;;1.35;0.77;;;;;;;33.84;9.23;98069.50;6104051;29;20138;-69
2022/10/03 07:55:59;;;;;;;0.50;0.50;;;;;;;32.72;9.57;98048.91;6104128;29;20058;-69
2022/10/03 07:59:25;;;;;;;0.40;0.40;;;;;;;32.60;9.75;98055.00;6103891;29;20056;-69
2022/10/03 08:03:15;;;;;;;0.85;0.52;;;;;;;34.06;9.27;98066.47;6103444;29;20060;-69
2022/10/03 08:06:30;;;;;;;0.98;0.65;;;;;;;32.78;9.94;98058.94;6104016;29;20550;-69
2022/10/03 08:10:03;;;;;;;1.50;0.77;;;;;;;32.75;9.99;98049.31;6103373;29;20048;-68
2022/10/03 08:13:23;;;;;;;0.98;0.50;;;;;;;33.27;9.66;98046.69;6103988;29;20040;-69
2022/10/03 08:16:48;;;;;;;1.02;0.68;;;;;;;35.01;9.03;98058.06;6103566;29;20066;-69
2022/10/03 08:20:23;;;;;;;1.20;0.40;;;;;;;34.48;9.10;98059.41;6103828;29;20541;-69
2022/10/03 08:24:09;;;;;;;1.08;0.90;;;;;;;33.45;9.22;98052.25;6103543;29;20044;-70
2022/10/03 08:27:18;;;;;;;1.95;0.90;;;;;;;32.22;9.51;98051.25;6103154;29;20048;-69
2022/10/03 08:30:42;;;;;;;0.90;0.50;;;;;;;32.16;10.12;98040.13;6103240;29;20519;-68
2022/10/03 08:34:21;;;;;;;0.82;0.50;;;;;;;33.12;9.68;98048.81;6082836;29;20131;-68
2022/10/03 08:37:28;;;;;;;1.05;0.47;;;;;;;33.40;9.24;98049.34;6083639;29;20044;-68
2022/10/03 08:40:55;;;;;;;1.73;1.17;;;;;;;33.70;9.06;98046.91;6103285;29;20081;-68
2022/10/03 08:44:47;;;;;;;0.85;0.65;;;;;;;33.52;8.95;98041.38;6102961;29;20059;-68
2022/10/03 08:48:12;;;;;;;1.58;0.70;;;;;;;32.43;8.93;98056.44;6086324;29;20052;-70
2022/10/03 08:51:42;;;;;;;0.63;0.60;;;;;;;32.44;9.42;98049.94;6102891;29;20051;-68
2022/10/03 08:54:50;;;;;;;1.50;0.63;;;;;;;31.14;9.77;98046.50;6087257;29;20052;-69
2022/10/03 08:58:28;;;;;;;1.00;0.80;;;;;;;32.06;9.63;98049.75;6102651;29;20052;-69
2022/10/03 09:01:45;;;;;;;0.63;0.60;;;;;;;32.19;10.01;98050.59;6102461;29;20423;-69
2022/10/03 09:05:10;;;;;;;1.10;0.90;;;;;;;32.87;9.26;98060.41;6102567;29;20409;-68
2022/10/03 09:08:50;;;;;;;0.73;0.60;;;;;;;32.15;9.56;98060.22;6101177;29;20080;-69
2022/10/03 09:12:21;;;;;;;0.68;0.50;;;;;;;31.15;10.26;98052.78;6102189;29;20134;-69
2022/10/03 09:15:44;;;;;;;1.00;0.85;;;;;;;30.77;10.54;98051.31;6102435;29;20498;-69
2022/10/03 09:19:04;;;;;;;1.60;0.75;;;;;;;31.73;10.00;98055.94;6102359;29;20083;-69
2022/10/03 09:22:18;;;;;;;1.63;0.60;;;;;;;30.70;10.49;98047.69;6102196;29;20067;-69
2022/10/03 09:25:28;;;;;;;0.88;0.60;;;;;;;29.66;11.25;98036.53;6102111;29;20587;-69
2022/10/03 09:29:05;;;;;;;0.80;0.68;;;;;;;30.09;11.21;98022.94;6102008;29;20399;-69
2022/10/03 09:32:24;;;;;;;0.95;0.70;;;;;;;30.03;11.33;98038.16;6102158;29;20051;-69
2022/10/03 09:35:44;;;;;;;1.20;1.10;;;;;;;29.67;11.26;98039.06;6101883;29;20052;-69
2022/10/03 09:39:07;;;;;;;1.20;0.80;;;;;;;29.45;11.67;98042.75;6101686;29;20055;-70
2022/10/03 09:42:58;;;;;;;1.75;0.70;;;;;;;29.33;12.04;98047.84;6101396;29;20048;-69
2022/10/03 09:46:30;;;;;;;0.77;0.77;;;;;;;28.31;12.48;98036.72;6093358;29;20506;-69
2022/10/03 09:49:58;;;;;;;1.35;0.82;;;;;;;27.46;13.19;98032.28;6101306;29;20055;-69
2022/10/03 09:53:37;;;;;;;2.38;0.80;;;;;;;27.15;13.46;98030.41;6100227;29;20083;-69
2022/10/03 09:56:59;;;;;;;1.23;1.00;;;;;;;27.51;13.26;98027.19;6101702;29;20059;-69
2022/10/03 10:00:01;;;;;;;1.23;0.60;;;;;;;27.04;13.69;98010.03;6101620;29;20063;-68
2022/10/03 10:03:41;;;;;;;0.55;0.43;;;;;;;27.22;13.37;98027.88;6101642;29;20404;-69
2022/10/03 10:07:17;;;;;;;1.75;0.57;;;;;;;26.88;13.89;98019.03;6101536;29;20048;-69
2022/10/03 10:10:43;;;;;;;1.45;0.80;;;;;;;26.64;13.94;98024.53;6101598;29;20084;-69
2022/10/03 10:14:21;;;;;;;1.02;0.52;;;;;;;26.42;14.26;98026.06;6101545;29;20048;-69
2022/10/03 10:17:44;;;;;;;1.08;0.80;;;;;;;25.81;14.55;98022.88;6101058;29;20074;-70
2022/10/03 10:21:04;;;;;;;2.70;2.00;;;;;;;25.90;14.84;98029.13;6100268;29;20086;-68
2022/10/03 10:24:30;;;;;;;1.55;1.45;;;;;;;26.10;14.47;98024.25;6101509;29;20048;-68
2022/10/03 10:27:34;;;;;;;1.60;0.90;;;;;;;26.67;14.16;98029.59;6101525;29;20055;-70
2022/10/03 10:31:00;;;;;;;0.82;0.68;;;;;;;26.67;14.17;98037.69;6100086;29;20035;-69
2022/10/03 10:34:58;;;;;;;1.15;0.50;;;;;;;26.26;14.58;98036.88;6101160;29;20426;-69
2022/10/03 10:38:14;;;;;;;1.10;0.63;;;;;;;25.15;15.21;98053.41;6058318;29;20052;-69
2022/10/03 10:41:37;;;;;;;1.95;1.38;;;;;;;24.92;15.87;98048.56;6101053;29;20075;-69
2022/10/03 10:44:41;;;;;;;3.33;1.53;;;;;;;23.74;16.57;98034.59;6101008;29;20052;-68
2022/10/03 10:48:03;;;;;;;4.45;1.33;;;;;;;23.26;17.46;98035.78;6100918;29;20054;-68
2022/10/03 10:51:35;;;;;;;3.83;0.93;;;;;;;23.34;17.49;98031.50;6100877;29;20107;-69
2022/10/03 10:55:14;;;;;;;0.85;0.73;;;;;;;23.70;17.18;98038.63;6100763;29;20040;-69
2022/10/03 10:58:45;;;;;;;0.52;0.40;;;;;;;24.23;16.58;98044.91;6100736;29;20055;-69
2022/10/03 11:02:10;;;;;;;2.88;0.77;;;;;;;24.23;16.64;98036.00;6101113;29;20064;-69
2022/10/03 11:05:48;;;;;;;1.55;0.60;;;;;;;24.77;16.60;98039.38;6101036;29;20048;-69
2022/10/03 11:09:27;;;;;;;3.72;1.27;;;;;;;24.09;16.78;98042.78;6101092;29;20048;-69
2022/10/03 11:12:36;;;;;;;2.03;1.25;;;;;;;23.19;17.53;98040.06;6104663;29;20184;-69
2022/10/03 11:16:05;;;;;;;2.53;0.90;;;;;;;22.90;17.86;98025.91;6104984;29;20181;-69
2022/10/03 11:19:34;;;;;;;0.80;0.70;;;;;;;22.52;18.31;98035.84;6104792;29;20426;-68
2022/10/03 11:23:21;;;;;;;1.85;1.08;;;;;;;22.40;18.57;98040.53;6104584;29;20048;-69
2022/10/03 11:27:00;;;;;;;1.60;0.90;;;;;;;21.98;18.86;98039.00;6105217;29;20126;-70
2022/10/03 11:30:19;;;;;;;7.63;4.55;;;;;;;21.28;19.65;98034.72;6104545;29;20540;-69
2022/10/03 11:33:51;;;;;;;10.30;5.25;;;;;;;21.41;19.19;98040.72;6104676;29;20558;-69
2022/10/03 11:37:24;;;;;;;4.68;2.95;;;;;;;21.56;19.39;98042.97;6104681;29;20077;-69
2022/10/03 11:40:46;;;;;;;3.80;2.20;;;;;;;21.62;19.24;98051.28;6087482;29;20060;-69
2022/10/03 11:44:18;;;;;;;3.15;1.50;;;;;;;21.39;19.54;98047.19;6104306;29;20131;-69
2022/10/03 11:47:31;;;;;;;2.00;1.38;;;;;;;21.33;19.59;98051.22;6104161;29;20107;-69
2022/10/03 11:50:50;;;;;;;2.58;1.67;;;;;;;21.03;19.96;98047.66;6103161;29;20422;-69
2022/10/03 11:54:13;;;;;;;3.95;2.00;;;;;;;20.71;20.28;98047.81;6104360;29;20054;-69
2022/10/03 11:57:17;;;;;;;2.40;1.43;;;;;;;20.73;20.42;98058.38;6104205;29;20048;-69
2022/10/03 12:00:25;;;;;;;2.90;1.10;;;;;;;20.40;20.40;98058.44;6104206;29;20048;-69
2022/10/03 12:03:38;;;;;;;2.60;1.15;;;;;;;19.90;20.85;98046.72;6103974;29;20624;-69
2022/10/03 12:10:42;;;;;;;3.08;1.67;;;;;;;19.34;21.37;98052.28;6103587;29;20514;-68
2022/10/03 12:14:05;;;;;;;6.90;3.30;;;;;;;18.80;22.11;98057.44;6103527;29;20484;-69
2022/10/03 12:17:27;;;;;;;2.45;1.25;;;;;;;18.42;22.47;98051.59;6103433;29;20507;-70
2022/10/03 12:20:31;;;;;;;3.10;1.58;;;;;;;18.06;22.79;98045.47;6103341;29;20058;-69
2022/10/03 12:23:53;;;;;;;3.60;1.88;;;;;;;17.95;23.11;98059.63;6102133;29;20055;-69
2022/10/03 12:27:09;;;;;;;5.07;2.25;;;;;;;17.51;23.37;98067.25;6103567;29;20230;-70
2022/10/03 12:30:17;;;;;;;3.22;1.30;;;;;;;17.12;24.10;98056.91;6101863;29;20044;-69
2022/10/03 12:33:47;;;;;;;1.02;0.90;;;;;;;16.97;24.07;98058.84;6101200;29;20437;-68
2022/10/03 12:37:20;;;;;;;2.67;0.80;;;;;;;16.84;24.62;98056.22;6102581;29;20047;-70
2022/10/03 12:40:35;;;;;;;1.17;0.70;;;;;;;16.58;24.98;98066.84;6096711;29;20059;-69
2022/10/03 12:43:45;;;;;;;1.50;1.00;;;;;;;16.26;25.45;98054.97;6102951;29;20067;-70
2022/10/03 12:47:24;;;;;;;2.40;0.90;;;;;;;15.99;25.66;98053.25;6102992;29;20043;-70
2022/10/03 12:50:42;;;;;;;1.60;0.60;;;;;;;15.57;26.37;98063.13;6102937;29;20052;-70
2022/10/03 12:53:52;;;;;;;2.95;0.90;;;;;;;15.09;27.04;98060.06;6102650;29;20050;-69
2022/10/03 12:57:15;;;;;;;1.70;0.80;;;;;;;14.74;27.64;98065.78;6102605;29;20553;-70
2022/10/03 13:00:25;;;;;;;2.22;0.82;;;;;;;14.50;28.16;98072.59;6102671;29;20055;-69
2022/10/03 13:03:50;;;;;;;1.65;0.80;;;;;;;14.24;28.41;98075.03;6102621;29;20056;-70
2022/10/03 13:07:16;;;;;;;4.07;2.08;;;;;;;14.07;28.70;98069.91;6102582;29;20060;-70
2022/10/03 13:10:30;;;;;;;;;;;;;;;13.89;28.99;98080.63;6102551;29;20458;-69
2022/10/03 13:14:15;;;;;;;6.22;3.08;;;;;;;13.57;29.62;98079.03;6101804;29;20018;-69
2022/10/03 13:17:34;;;;;;;3.72;2.67;;;;;;;13.38;29.95;98077.41;6052086;29;20060;-70
2022/10/03 13:20:42;;;;;;;5.03;3.28;;;;;;;13.17;30.47;98078.63;6057548;29;20057;-70
2022/10/03 13:24:06;;;;;;;3.38;2.40;;;;;;;12.94;30.61;98075.47;6101691;29;20056;-70
2022/10/03 13:27:11;;;;;;;5.13;3.53;;;;;;;12.92;30.99;98079.97;6101793;29;20048;-68
2022/10/03 13:30:29;;;;;;;3.78;2.88;;;;;;;12.57;31.58;98072.19;6102116;29;20059;-70
2022/10/03 13:33:41;;;;;;;4.28;2.45;;;;;;;12.49;31.51;98069.09;6101337;29;20541;-69
2022/10/03 13:36:53;;;;;;;4.10;2.72;;;;;;;12.27;32.25;98079.09;6101867;29;20048;-69
2022/10/03 13:40:07;;;;;;;7.55;3.50;;;;;;;12.18;32.38;98074.31;6101913;29;20059;-71
2022/10/03 13:43:14;;;;;;;5.97;3.67;;;;;;;12.04;32.70;98083.78;6101497;29;20193;-70
2022/10/03 13:46:24;;;;;;;8.18;3.45;;;;;;;11.79;33.04;98080.66;6100197;29;20082;-68
2022/10/03 13:49:33;;;;;;;4.10;2.70;;;;;;;11.69;33.46;98086.38;6101313;29;20143;-70
2022/10/03 13:52:43;;;;;;;3.15;1.70;;;;;;;11.64;33.44;98091.03;6101525;29;20107;-70
2022/10/03 13:55:52;;;;;;;1.38;1.20;;;;;;;11.64;33.51;98098.94;6101271;29;20104;-69
2022/10/03 13:59:32;;;;;;;2.10;0.88;;;;;;;11.41;33.99;98089.53;6101674;29;20052;-69
2022/10/03 14:03:00;;;;;;;3.80;1.30;;;;;;;11.29;34.36;98102.44;6100192;29;20052;-70
2022/10/03 14:06:30;;;;;;;1.98;1.77;;;;;;;11.11;34.71;98102.38;6101148;29;20048;-70
2022/10/03 14:09:34;;;;;;;1.23;0.95;;;;;;;11.01;34.83;98103.72;6101206;29;20051;-70
2022/10/03 14:13:18;;;;;;;2.22;1.80;;;;;;;10.93;35.24;98098.00;6101545;29;20075;-69
2022/10/03 14:16:30;;;;;;;4.28;1.88;;;;;;;10.78;35.57;98108.31;6101475;29;20577;-70
2022/10/03 14:19:40;;;;;;;1.80;1.42;;;;;;;10.79;35.91;98117.91;6101291;29;20059;-70
2022/10/03 14:23:08;;;;;;;2.28;1.70;;;;;;;10.65;36.17;98115.06;6101103;29;20523;-70
2022/10/03 14:26:24;;;;;;;2.53;1.52;;;;;;;10.62;36.52;98119.63;6099364;29;20558;-69
2022/10/03 14:29:44;;;;;;;3.28;1.40;;;;;;;10.48;36.72;98118.44;6101289;29;20130;-72
2022/10/03 14:33:05;;;;;;;3.55;1.92;;;;;;;10.36;37.08;98124.25;6101103;29;20044;-70
2022/10/03 14:36:29;;;;;;;3.65;2.80;;;;;;;10.18;37.50;98119.75;6101287;29;20510;-69
2022/10/03 14:39:51;;;;;;;5.13;3.65;;;;;;;10.11;37.79;98125.28;6099893;29;20051;-69
2022/10/03 14:42:53;;;;;;;4.22;3.22;;;;;;;9.89;38.11;98120.09;6101137;29;20134;-70
2022/10/03 14:45:59;;;;;;;7.78;4.60;;;;;;;9.81;38.51;98116.91;6102524;29;20052;-70
2022/10/03 14:49:04;;;;;;;6.82;3.35;;;;;;;9.76;38.79;98124.13;6104865;29;20048;-70
2022/10/03 14:52:32;;;;;;;5.60;3.55;;;;;;;9.66;38.85;98123.66;6105408;29;20044;-70
2022/10/03 14:55:45;;;;;;;3.15;2.75;;;;;;;9.71;38.69;98131.38;6104812;29;20426;-70
2022/10/03 14:58:53;;;;;;;3.53;2.22;;;;;;;9.47;39.01;98135.00;6105387;29;20142;-71
2022/10/03 15:01:58;;;;;;;2.58;2.30;;;;;;;9.43;38.88;98131.66;6105401;29;20047;-70
2022/10/03 15:05:31;;;;;;;2.28;1.48;;;;;;;9.46;38.95;98126.25;6105543;29;20048;-70
2022/10/03 15:08:43;;;;;;;2.85;1.88;;;;;;;9.52;39.15;98135.69;6105306;29;20422;-69
2022/10/03 15:11:51;;;;;;;3.65;1.98;;;;;;;9.36;39.10;98131.00;6105172;29;20179;-69
2022/10/03 15:15:05;;;;;;;1.98;1.73;;;;;;;9.13;39.66;98133.69;6104695;29;20054;-69
2022/10/03 15:18:14;;;;;;;2.10;1.90;;;;;;;9.17;39.79;98140.53;6105040;29;20071;-68
2022/10/03 15:21:18;;;;;;;2.22;1.77;;;;;;;9.18;39.53;98132.59;6088254;29;20449;-69
2022/10/03 15:24:24;;;;;;;;;;;;;;;9.09;39.35;98132.97;6105184;29;20044;-69
2022/10/03 15:27:27;;;;;;;3.75;2.55;;;;;;;8.89;39.99;98131.13;6105228;29;19994;-69
2022/10/03 15:30:36;;;;;;;5.15;2.55;;;;;;;9.10;39.86;98139.06;6104692;29;20068;-69
2022/10/03 15:33:38;;;;;;;4.13;2.45;;;;;;;9.03;39.83;98129.72;6104153;29;20048;-69
2022/10/03 15:36:48;;;;;;;3.72;2.22;;;;;;;8.89;40.21;98128.50;6104654;29;20426;-69
2022/10/03 15:39:55;;;;;;;4.03;2.38;;;;;;;8.80;40.40;98131.44;6104874;29;20052;-68
2022/10/03 15:43:11;;;;;;;5.28;2.47;;;;;;;8.76;40.62;98128.06;6104193;29;20413;-68
2022/10/03 15:46:39;;;;;;;4.20;2.42;;;;;;;8.89;40.19;98128.50;6104454;29;20499;-68
2022/10/03 15:49:49;;;;;;;4.95;2.72;;;;;;;8.62;40.93;98142.63;6104348;29;20047;-70
2022/10/03 15:52:57;;;;;;;5.82;2.72;;;;;;;8.50;41.12;98131.69;6103107;29;20048;-70
2022/10/03 15:56:40;;;;;;;5.97;2.35;;;;;;;8.49;41.03;98137.84;6103906;29;20123;-69
2022/10/03 15:59:45;;;;;;;7.07;3.33;;;;;;;8.32;41.19;98134.91;6055149;29;20108;-68
2022/10/03 16:02:52;;;;;;;4.13;2.45;;;;;;;8.21;41.95;98137.94;6103426;29;20060;-70
2022/10/03 16:06:07;;;;;;;5.43;2.95;;;;;;;8.24;41.79;98137.81;6103641;29;20084;-69
2022/10/03 16:09:16;;;;;;;3.75;2.83;;;;;;;8.20;41.97;98135.34;6102768;29;20060;-70